Brookings, OR

11:46 PM PST en Diciembre 08, 2016 (GMT -0800)
DRPHarbor | | Change Station

Alt 105 ft 42.04 °N, 124.26 °W | Updated 28 seconds ago

Light Rain
Lluvia débil
50.5 ° F
Sensación térmica 50.5 ° F
N
3.0
Viento Variable Viento desde Este

Hoy
Alta -- | Baja -- ° F
--% Posibilidad de precipitaciones
Ayer
Alta -- | Baja -- ° F
Precip. -- pul
Presión 30.08 pul
Visibilidad 3.0 Millas
Nubes Baja 600 ft
Muy nublado 1300 ft
Nublado 2000 ft
Punto de rocío 48 ° F
Humedad 91%
Precipitaciones 0.23 pul
Espesor de la nieve No disponible.
7:33 AM 4:45 PM
Gibosa creciente, 71% visible
SPECI KBOK 090712Z AUTO VRB03KT 3SM -RA BR FEW006 BKN013 OVC020 10/09 A3008 RMK AO2 P0001
Presión 30.08 pul
Visibilidad 3.0 Millas
Nubes Baja 600 ft
Muy nublado 1300 ft
Nublado 2000 ft
Punto de rocío 48 ° F
Humedad 91%
Precipitaciones 0.23 pul
Espesor de la nieve No disponible.
7:33 AM 4:45 PM
Gibosa creciente, 71% visible
SPECI KBOK 090712Z AUTO VRB03KT 3SM -RA BR FEW006 BKN013 OVC020 10/09 A3008 RMK AO2 P0001

10-Day Weather Forecast

Almanac

Astronomía

Dec. 08, 2016 Salida Puesta
Hora real
Crepúsculo civil
Crepúsculo náutico
Crepúsculo astronómico
Luna
Horas de luz
Horas de luz
Tomorrow will be .
, % of the Moon is Illuminated

Extremos de hoy

Máximos del estado Bajos del estado

Community

WunderPhotos

Upload Photos

1,956,374 ¡fotos cargadas!

WunderBlog® & News

Nearby

Calidad del aire

  Calidad del aire Índice AQ Contaminante
Not available.

Grosos de nieve

Estación Profundido Altura

Actividad de terremotos

Ciudad Distance Mag. Tiempo y dato
Magnitud mínima muestra es 2,5.

Temperaturas de aguas costeras

Lugar Temperatura

Stations

Estaciones meteorológicas cercanas

Ubicación de la estación Temp. Vientos helados Punto de rocío Humedad Viento Precip. Alt Actualizado Tipo
                   

Watches & Warnings

There are currently no watches in effect.